createdAt,value
2022-12-08T00:02:48.974Z,15.90
2022-12-08T00:08:10.402Z,16.00
2022-12-08T00:13:13.952Z,16.00
2022-12-08T00:18:18.706Z,16.10
2022-12-08T00:23:22.167Z,16.00
2022-12-08T00:28:25.610Z,16.00
2022-12-08T00:33:30.612Z,16.00
2022-12-08T00:38:34.049Z,16.00
2022-12-08T00:43:37.685Z,16.00
2022-12-08T00:48:42.590Z,16.00
2022-12-08T00:53:46.071Z,16.00
2022-12-08T00:58:49.600Z,16.00
2022-12-08T01:03:54.683Z,16.00
2022-12-08T01:08:58.227Z,15.90
2022-12-08T01:14:01.756Z,16.00
2022-12-08T01:19:06.667Z,16.10
2022-12-08T01:24:12.162Z,16.00
2022-12-08T01:29:16.177Z,15.90
2022-12-08T01:34:21.094Z,16.00
2022-12-08T01:39:24.529Z,15.90
2022-12-08T01:44:57.027Z,16.00
2022-12-08T01:50:02.400Z,16.00
2022-12-08T01:55:08.731Z,16.00
2022-12-08T02:00:14.453Z,16.00
2022-12-08T02:05:20.993Z,16.00
2022-12-08T02:10:25.567Z,15.90
2022-12-08T02:15:35.428Z,16.00
2022-12-08T02:20:46.081Z,16.00
2022-12-08T02:26:17.818Z,16.00
2022-12-08T02:31:27.039Z,16.00
2022-12-08T02:36:38.059Z,16.00
2022-12-08T02:41:48.268Z,16.00
2022-12-08T02:46:54.465Z,16.10
2022-12-08T02:52:07.935Z,16.00
2022-12-08T02:57:23.107Z,16.00
2022-12-08T03:02:38.745Z,16.00
2022-12-08T03:07:49.046Z,16.00
2022-12-08T03:12:56.855Z,16.00
2022-12-08T03:18:01.434Z,16.00
2022-12-08T03:23:08.865Z,16.00
2022-12-08T03:28:13.028Z,15.90
2022-12-08T03:33:17.809Z,16.00
2022-12-08T03:38:23.637Z,16.00
2022-12-08T03:43:27.086Z,16.00
2022-12-08T03:48:30.614Z,15.90
2022-12-08T03:53:35.503Z,16.00
2022-12-08T03:58:38.985Z,16.00
2022-12-08T04:03:42.413Z,15.90
2022-12-08T04:08:47.451Z,16.00
2022-12-08T04:13:50.964Z,15.90
2022-12-08T04:18:54.536Z,16.00
2022-12-08T04:24:01.439Z,16.00
2022-12-08T04:29:05.188Z,16.00
2022-12-08T04:34:08.697Z,16.00
2022-12-08T04:39:13.619Z,16.00
2022-12-08T04:44:17.117Z,16.00
2022-12-08T04:49:20.713Z,16.00
2022-12-08T04:54:25.630Z,16.00
2022-12-08T04:59:29.106Z,16.00
2022-12-08T05:04:32.577Z,16.00
2022-12-08T05:09:37.421Z,15.90
2022-12-08T05:14:40.778Z,16.00
2022-12-08T05:19:44.239Z,16.00
2022-12-08T05:24:48.996Z,16.00
2022-12-08T05:29:52.336Z,15.90
2022-12-08T05:34:55.835Z,16.00
2022-12-08T05:40:00.977Z,16.00
2022-12-08T05:45:05.203Z,16.00
2022-12-08T05:50:09.511Z,15.90
2022-12-08T05:55:14.293Z,16.00
2022-12-08T06:00:18.602Z,16.00
2022-12-08T06:05:21.965Z,16.00
2022-12-08T06:10:26.737Z,15.90
2022-12-08T06:15:30.077Z,16.00
2022-12-08T06:20:33.611Z,16.00
2022-12-08T06:25:38.363Z,16.00
2022-12-08T06:30:41.703Z,16.00
2022-12-08T06:35:45.087Z,16.00
2022-12-08T06:40:56.700Z,15.90
2022-12-08T06:46:00.189Z,16.00
2022-12-08T06:51:08.100Z,16.00
2022-12-08T06:56:13.564Z,16.00
2022-12-08T07:01:16.985Z,16.00
2022-12-08T07:06:23.132Z,15.90
2022-12-08T07:11:27.879Z,16.00
2022-12-08T07:16:31.525Z,15.90
2022-12-08T07:21:35.015Z,15.90
2022-12-08T07:26:40.022Z,15.90
2022-12-08T07:31:43.392Z,15.90
2022-12-08T07:36:46.754Z,16.00
2022-12-08T07:41:51.530Z,16.00
2022-12-08T07:46:54.893Z,16.00
2022-12-08T07:51:58.251Z,16.00
2022-12-08T07:57:06.119Z,16.00
2022-12-08T08:02:26.118Z,15.90
2022-12-08T08:07:32.023Z,16.00
2022-12-08T08:12:37.159Z,16.00
2022-12-08T08:17:40.593Z,16.00
2022-12-08T08:22:44.003Z,16.00
2022-12-08T08:27:48.758Z,16.00
2022-12-08T08:32:52.494Z,16.00
2022-12-08T08:37:55.836Z,15.90
2022-12-08T08:43:02.056Z,16.00
2022-12-08T08:48:05.730Z,15.90
2022-12-08T08:53:09.089Z,15.90
2022-12-08T08:58:13.886Z,16.00
2022-12-08T09:03:18.981Z,15.90
2022-12-08T09:08:22.437Z,16.10
2022-12-08T09:13:27.343Z,16.00
2022-12-08T09:18:30.988Z,16.00
2022-12-08T09:23:35.726Z,16.00
2022-12-08T09:28:46.218Z,16.00
2022-12-08T09:33:51.724Z,16.00
2022-12-08T09:38:55.153Z,16.00
2022-12-08T09:44:08.468Z,16.00
2022-12-08T09:49:15.924Z,16.10
2022-12-08T09:54:22.406Z,16.10
2022-12-08T09:59:31.014Z,16.10
2022-12-08T10:04:36.331Z,16.10
2022-12-08T10:09:43.453Z,16.10
2022-12-08T10:14:50.989Z,16.10
2022-12-08T10:20:02.068Z,16.20
2022-12-08T10:25:11.331Z,16.10
2022-12-08T10:30:18.452Z,16.20
2022-12-08T10:35:23.265Z,16.10
2022-12-08T10:40:30.003Z,16.10
2022-12-08T10:45:41.896Z,16.10
2022-12-08T10:50:46.452Z,16.10
2022-12-08T10:55:51.444Z,16.10
2022-12-08T11:00:58.556Z,16.10
2022-12-08T11:06:10.504Z,16.20
2022-12-08T11:11:14.906Z,16.20
2022-12-08T11:16:20.673Z,16.10
2022-12-08T11:21:33.039Z,16.20
2022-12-08T11:26:38.644Z,16.10
2022-12-08T11:31:47.187Z,16.10
2022-12-08T11:36:51.256Z,16.10
2022-12-08T11:41:55.238Z,16.20
2022-12-08T11:47:03.532Z,16.10
2022-12-08T11:52:12.390Z,16.00
2022-12-08T11:57:20.843Z,16.20
2022-12-08T12:02:27.891Z,16.10
2022-12-08T12:07:53.840Z,16.10
2022-12-08T12:13:12.477Z,16.30
2022-12-08T12:18:23.764Z,16.30
2022-12-08T12:23:32.856Z,16.40
2022-12-08T12:28:42.110Z,16.40
2022-12-08T12:33:48.020Z,16.40
2022-12-08T12:39:09.444Z,16.60
2022-12-08T12:44:39.713Z,16.60
2022-12-08T12:50:17.480Z,16.70
2022-12-08T12:55:53.458Z,16.80
2022-12-08T13:01:38.042Z,16.90
2022-12-08T13:06:46.272Z,17.00
2022-12-08T13:11:52.827Z,17.00
2022-12-08T13:16:57.799Z,17.00
2022-12-08T13:22:02.855Z,17.00
2022-12-08T13:27:34.770Z,17.00
2022-12-08T13:33:17.824Z,17.20
2022-12-08T13:38:24.380Z,17.20
2022-12-08T13:43:47.333Z,17.20
2022-12-08T13:55:49.729Z,17.00
2022-12-08T13:59:51.468Z,17.20
2022-12-08T14:10:24.040Z,17.30
2022-12-08T14:15:30.219Z,17.30
2022-12-08T15:17:35.998Z,16.70
2022-12-08T15:22:40.332Z,16.30
2022-12-08T15:27:50.143Z,16.30
2022-12-08T15:32:56.472Z,16.20
2022-12-08T15:37:59.933Z,16.30
2022-12-08T15:43:03.309Z,16.20
2022-12-08T15:48:08.251Z,16.30
2022-12-08T15:53:11.970Z,16.30
2022-12-08T16:09:16.547Z,16.40
2022-12-08T16:15:01.991Z,16.30
2022-12-08T16:19:45.664Z,16.30
2022-12-08T16:24:49.035Z,16.40
2022-12-08T16:29:52.613Z,16.40
2022-12-08T16:34:57.391Z,16.40
2022-12-08T16:40:00.963Z,16.40
2022-12-08T16:45:05.643Z,16.40
2022-12-08T16:50:13.529Z,16.40
2022-12-08T16:55:18.591Z,16.40
2022-12-08T17:00:23.890Z,16.40
2022-12-08T17:05:28.740Z,16.40
2022-12-08T17:10:34.491Z,16.50
2022-12-08T17:15:38.086Z,16.40
2022-12-08T17:20:42.853Z,16.40
2022-12-08T17:25:46.223Z,16.50
2022-12-08T17:30:49.585Z,16.40
2022-12-08T17:35:55.588Z,16.50
2022-12-08T17:41:04.103Z,16.60
2022-12-08T17:46:07.953Z,16.50
2022-12-08T17:51:12.878Z,16.50
2022-12-08T17:56:17.959Z,16.60
2022-12-08T18:01:21.528Z,16.60
2022-12-08T18:06:30.950Z,16.60
2022-12-08T18:11:35.495Z,16.70
2022-12-08T18:16:40.906Z,16.70
2022-12-08T18:21:46.039Z,16.60
2022-12-08T18:26:50.915Z,16.60
2022-12-08T18:31:54.411Z,16.70
2022-12-08T18:36:59.362Z,16.70
2022-12-08T18:42:23.062Z,16.70
2022-12-08T18:47:26.606Z,16.80
2022-12-08T18:52:32.493Z,16.70
2022-12-08T18:57:36.378Z,16.70
2022-12-08T19:02:40.280Z,16.80
2022-12-08T19:07:45.878Z,16.80
2022-12-08T19:12:51.393Z,16.70
2022-12-08T19:17:54.866Z,16.80
2022-12-08T19:22:59.696Z,16.80
2022-12-08T19:28:03.213Z,16.70
2022-12-08T19:33:06.725Z,16.80
2022-12-08T19:38:11.585Z,16.80
2022-12-08T19:43:46.878Z,16.80
2022-12-08T19:48:50.383Z,16.80
2022-12-08T19:53:55.539Z,16.90
2022-12-08T19:58:59.063Z,17.10
2022-12-08T20:04:02.560Z,17.00
2022-12-08T20:09:08.389Z,17.00
2022-12-08T20:14:11.864Z,17.00
2022-12-08T20:19:15.366Z,16.90
2022-12-08T20:24:20.274Z,16.90
2022-12-08T20:29:23.709Z,16.90
2022-12-08T20:34:27.282Z,17.00
2022-12-08T20:39:32.166Z,17.10
2022-12-08T20:44:35.660Z,17.10
2022-12-08T20:49:39.316Z,17.10
2022-12-08T20:54:44.328Z,17.00
2022-12-08T20:59:47.776Z,17.00
2022-12-08T21:04:51.458Z,17.00
2022-12-08T21:09:56.391Z,17.10
2022-12-08T21:14:59.936Z,17.10
2022-12-08T21:20:03.721Z,17.00
2022-12-08T21:25:10.156Z,17.00
2022-12-08T21:30:14.826Z,17.10
2022-12-08T21:35:18.420Z,17.00
2022-12-08T21:40:23.277Z,17.10
2022-12-08T21:45:26.782Z,17.10
2022-12-08T21:50:30.328Z,17.10
2022-12-08T21:55:35.343Z,17.10
2022-12-08T22:00:39.075Z,17.10
2022-12-08T22:05:43.141Z,17.20
2022-12-08T22:10:49.972Z,17.20
2022-12-08T22:15:57.618Z,17.20
2022-12-08T22:21:01.527Z,17.20
2022-12-08T22:26:07.513Z,17.20
2022-12-08T22:31:11.727Z,17.10
2022-12-08T22:36:16.920Z,17.30
2022-12-08T22:41:22.287Z,17.20
2022-12-08T22:46:27.931Z,17.20
2022-12-08T22:51:31.485Z,17.20
2022-12-08T22:56:36.571Z,17.20
2022-12-08T23:01:40.136Z,17.20
2022-12-08T23:06:43.604Z,17.20
2022-12-08T23:11:48.507Z,17.30
2022-12-08T23:16:52.237Z,17.30
2022-12-08T23:21:55.707Z,17.30
2022-12-08T23:27:00.728Z,17.30
2022-12-08T23:32:04.551Z,17.40
2022-12-08T23:37:08.191Z,17.50
2022-12-08T23:42:13.322Z,17.70
2022-12-08T23:47:17.182Z,17.60
2022-12-08T23:52:20.807Z,17.60
2022-12-08T23:57:25.897Z,17.60
